Aérodrome :
LOGIN :

S'inscrire | Disclaimer

   EN    FR    IT 

 










Légende :    VFR   VFR Marginal   IFR   IFR Intensif   IFR Très Intensif
Visi : 
Plafond : 
>= 8 km
>= 3000ft
5 à 8 km
1000 à 3000 ft
1500m à 5 km
500 à 1000 ft
800 à 1500m
200 à 500 ft
< 800m
< 200 ft
Symboles :   Orages  Brouillard  Fortes neiges  Fortes précipitations  Vent > 20 kt
SIGMETs :   Divers  Orages  Givrage  Turbulence  Onde Orograph.  Cendres Volcan.






- Altitude de l'aérodrome : 357 ft
- Code IATA : TUF


LFOT - Tours

DERNIER METAR :
  • 220530Z AUTO 14008KT 9999 ///TCU 05/04 Q1001 BECMG BKN045

METARs EXPIRÉS :
  • 220500Z AUTO 15008KT 9999 FEW033/// SCT060/// BKN092/// ///TCU 05/05 Q1001 BECMG BKN045
  • 220430Z AUTO 15005KT 9999 FEW028/// BKN036/// BKN045/// ///TCU 05/05 Q1001 BECMG BKN045
  • 220400Z AUTO 13006KT 9999 BKN039 BKN140 BKN160 04/04 Q1001 TEMPO BKN009
  • 220330Z AUTO 13006KT CAVOK 04/03 Q1001 TEMPO BKN009
  • 220300Z AUTO 15005KT CAVOK 05/04 Q1001 TEMPO BKN009

TAF TAF LFOT
Valide du 22 à 06h jusqu'au 23 à 06h UTC


220500Z 2206/2306 16010KT 9999 BKN045
TEMPO 2218/2302 4000 -RA BKN020



MET'MAP, la Météo Aéronautique d'un coup d'oeil ! - Copyright ORBIFLY Décembre 2007 - Disclaimer

ORBIFLY MET'MAP TEAM :

Programmation & Développement : Alexandra Zaïnal
Conception & Développement : Baudouin d'Aumeries
Co-Programmation & Développement : Marc-Olivier Méhu
Soutien technique & logistique : Manuel Goepfert

Contact : metmap@orbifly.com




SOURCES & CREDITS :

   NOAA